Terminal Aerodrome Forecast
Issued by NWS

Current Version | Previous Version | Graphics & Text | Print | Product List | Glossary On
Versions: 1 2 3 4 5 6 7 8 9 10 11 12 13 14 15 16 17 18 19 20 21 22 23 24 25
000
FTUS41 KRNK 231720
TAFLWB
TAF
KLWB 231720Z 2318/2418 12015KT P6SM OVC100
      TEMPO 2319/2321 P6SM -RA OVC024
     FM232100 12010KT 5SM -RA OVC030
     FM240000 09015G23KT P6SM OVC020
     FM240500 04015G25KT 5SM -RA BR OVC020=

USA.gov is the U.S. government's official web portal to all federal, state and local government web resources and services.